Austin Straubel International, WI

6:18 PM CDT on September 20, 2014 (GMT -0500)
Austin Straubel International | Change Station
CLOSE
Current Station
Airport
Location: Green Bay,
Elevation: 686 ft
Nearby Weather Stations

Elev 686 ft 44.48 °N, 88.14 °W | Updated 25 minutes ago

Clear
Clear
73 °F
Feels Like 73 °F
N
7
Wind Variable Wind from WSW

Today
High -- | Low -- °F
--% Chance of Precip.
Yesterday
High -- | Low -- °F
Precip. -- in
6:37 AM 6:53 PM
Waning Crescent, 10% visible
Pressure 29.67 in
Visibility 10.0 miles
Clouds Clear
Dew Point 63 °F
Humidity 71%
Rainfall 0.39 in
Snow Depth Not available.
UV 0 out of 12
Pollen .50 out of 12
Ozone Good
Flu Activity Not available.
METAR KGRB 202253Z 24006KT 10SM CLR 23/17 A2968 RMK AO2 SLP047 T02280172

More Conditions Fewer Conditions

Pressure 29.67 in
Visibility 10.0 miles
Clouds Clear
Dew Point 63 °F
Humidity 71%
Rainfall 0.39 in
Snow Depth Not available.
UV 0 out of 12
Pollen .50 out of 12
Ozone Good
Flu Activity Not available.
METAR KGRB 202253Z 24006KT 10SM CLR 23/17 A2968 RMK AO2 SLP047 T02280172

More Conditions Fewer Conditions

10-Day Weather Forecast

Almanac

Astronomy

Sep. 20, 2014 Rise Set
Actual Time 6:37 AM CDT 6:53 PM CDT
Civil Twilight 6:08 AM CDT 7:22 PM CDT
Nautical Twilight 5:33 AM CDT 7:56 PM CDT
Astronomical Twilight 4:58 AM CDT 8:31 PM CDT
Moon 3:09 AM CDT 5:02 PM CDT
Length of Visible Light 13h 14m
Length of Day
12h 16m
Tomorrow will be 3m 3s shorter.
Waning Crescent, 10% of the Moon is Illuminated
Today
Waning Crescent
Sep 24
New
Oct 1
First Quarter
Oct 8
Full
Oct 15
Last Quarter

Today's Extremes

State Highs State Lows

Community

WunderPhotos

Upload Photos

1,754,972 photos uploaded!

WunderBlogs® & News

Nearby

Air Quality

  Air Quality AQ Index Pollutant
Yesterday Good
OZONE
Current Good
OZONE
Saturday Moderate
OZONE
Saturday Moderate
PM2.5
Sunday Good
OZONE
Sunday Good
PM2.5
Monday Good
OZONE
Monday Good
PM2.5

Snow Depth

Station Depth Elevation
No new snow has been reported.

Earthquake Activity

City Distance Mag. Time & Date
No recent earthquake activity has been reported nearby.
Minimum magnitude displayed is 2.5.

Coastal Water Temperatures

Place Temperature
Menominee, MI 60.1 °F

Nearby Weather Stations